Aviation Digital Data Service (ADDS)

Output produced by METARs form (2347 UTC 25 June 2019)
found at http://aviationweather.gov/metar/data/
 
KHKS 252253Z 24008KT 6SM -RA BR BKN110 23/22 A3012 RMK AO2 PK WND 27031/2155 RAB2154 SLP192 P0004 T02280217
KHKS 252151Z 2522/2618 25025G40KT 5SM TSRA BKN035CB OVC050 
     FM252230 21007KT P6SM RA SCT030 OVC050 
     FM260100 19003KT P6SM OVC120 
     FM260300 18002KT P6SM SCT020 BKN250